sensor_id;sensor_type;location;lat;lon;timestamp;P1;durP1;ratioP1;P2;durP2;ratioP2
55216;SDS011;41086;46.736;15.666;2023-04-28T00:01:10;9.05;;;5.68;;
55216;SDS011;41086;46.736;15.666;2023-04-28T00:03:37;9.90;;;5.45;;
55216;SDS011;41086;46.736;15.666;2023-04-28T00:06:04;10.38;;;5.47;;
55216;SDS011;41086;46.736;15.666;2023-04-28T00:08:31;9.48;;;5.72;;
55216;SDS011;41086;46.736;15.666;2023-04-28T00:10:58;9.60;;;5.68;;
55216;SDS011;41086;46.736;15.666;2023-04-28T00:13:25;14.85;;;6.30;;
55216;SDS011;41086;46.736;15.666;2023-04-28T00:15:52;10.38;;;5.90;;
55216;SDS011;41086;46.736;15.666;2023-04-28T00:18:19;12.25;;;6.18;;
55216;SDS011;41086;46.736;15.666;2023-04-28T00:20:46;8.27;;;5.70;;
55216;SDS011;41086;46.736;15.666;2023-04-28T00:23:12;8.93;;;5.72;;
55216;SDS011;41086;46.736;15.666;2023-04-28T00:25:39;11.13;;;6.10;;
55216;SDS011;41086;46.736;15.666;2023-04-28T00:28:05;11.88;;;6.80;;
55216;SDS011;41086;46.736;15.666;2023-04-28T00:30:32;9.63;;;6.07;;
55216;SDS011;41086;46.736;15.666;2023-04-28T00:32:58;8.40;;;5.03;;
55216;SDS011;41086;46.736;15.666;2023-04-28T00:35:25;13.50;;;5.47;;
55216;SDS011;41086;46.736;15.666;2023-04-28T00:37:52;9.07;;;5.78;;
55216;SDS011;41086;46.736;15.666;2023-04-28T00:40:18;9.15;;;5.75;;
55216;SDS011;41086;46.736;15.666;2023-04-28T00:42:45;10.25;;;5.68;;
55216;SDS011;41086;46.736;15.666;2023-04-28T00:45:11;8.95;;;5.80;;
55216;SDS011;41086;46.736;15.666;2023-04-28T00:47:38;11.52;;;5.65;;
55216;SDS011;41086;46.736;15.666;2023-04-28T00:50:05;14.48;;;7.03;;
55216;SDS011;41086;46.736;15.666;2023-04-28T00:52:32;14.80;;;6.60;;
55216;SDS011;41086;46.736;15.666;2023-04-28T00:54:59;12.40;;;6.90;;
55216;SDS011;41086;46.736;15.666;2023-04-28T00:59:52;10.50;;;5.55;;
55216;SDS011;41086;46.736;15.666;2023-04-28T01:02:19;9.02;;;5.28;;
55216;SDS011;41086;46.736;15.666;2023-04-28T01:04:46;11.68;;;6.80;;
55216;SDS011;41086;46.736;15.666;2023-04-28T01:07:14;13.30;;;6.82;;
55216;SDS011;41086;46.736;15.666;2023-04-28T01:09:41;11.52;;;6.50;;
55216;SDS011;41086;46.736;15.666;2023-04-28T01:12:11;12.60;;;6.68;;
55216;SDS011;41086;46.736;15.666;2023-04-28T01:14:42;8.77;;;6.38;;
55216;SDS011;41086;46.736;15.666;2023-04-28T01:17:09;13.35;;;6.20;;
55216;SDS011;41086;46.736;15.666;2023-04-28T01:19:36;11.55;;;6.43;;
55216;SDS011;41086;46.736;15.666;2023-04-28T01:22:03;10.38;;;6.25;;
55216;SDS011;41086;46.736;15.666;2023-04-28T01:24:30;10.10;;;6.28;;
55216;SDS011;41086;46.736;15.666;2023-04-28T01:27:01;17.30;;;7.28;;
55216;SDS011;41086;46.736;15.666;2023-04-28T01:29:28;13.15;;;7.50;;
55216;SDS011;41086;46.736;15.666;2023-04-28T01:31:55;11.30;;;5.85;;
55216;SDS011;41086;46.736;15.666;2023-04-28T01:34:21;9.93;;;6.95;;
55216;SDS011;41086;46.736;15.666;2023-04-28T01:36:48;18.17;;;7.47;;
55216;SDS011;41086;46.736;15.666;2023-04-28T01:39:15;14.82;;;8.43;;
55216;SDS011;41086;46.736;15.666;2023-04-28T01:41:42;13.82;;;8.65;;
55216;SDS011;41086;46.736;15.666;2023-04-28T01:44:08;11.43;;;7.10;;
55216;SDS011;41086;46.736;15.666;2023-04-28T01:46:35;12.02;;;6.78;;
55216;SDS011;41086;46.736;15.666;2023-04-28T01:49:02;15.38;;;7.65;;
55216;SDS011;41086;46.736;15.666;2023-04-28T01:51:28;15.18;;;8.57;;
55216;SDS011;41086;46.736;15.666;2023-04-28T01:53:55;12.05;;;8.98;;
55216;SDS011;41086;46.736;15.666;2023-04-28T01:58:50;13.87;;;8.07;;
55216;SDS011;41086;46.736;15.666;2023-04-28T02:01:17;10.38;;;6.95;;
55216;SDS011;41086;46.736;15.666;2023-04-28T02:03:43;16.27;;;9.23;;
55216;SDS011;41086;46.736;15.666;2023-04-28T02:06:10;15.38;;;8.63;;
55216;SDS011;41086;46.736;15.666;2023-04-28T02:08:37;13.73;;;7.07;;
55216;SDS011;41086;46.736;15.666;2023-04-28T02:11:04;12.98;;;7.57;;
55216;SDS011;41086;46.736;15.666;2023-04-28T02:13:30;14.77;;;8.65;;
55216;SDS011;41086;46.736;15.666;2023-04-28T02:16:00;17.00;;;10.00;;
55216;SDS011;41086;46.736;15.666;2023-04-28T02:18:28;14.77;;;9.82;;
55216;SDS011;41086;46.736;15.666;2023-04-28T02:21:06;13.95;;;10.15;;
55216;SDS011;41086;46.736;15.666;2023-04-28T02:23:33;15.25;;;9.82;;
55216;SDS011;41086;46.736;15.666;2023-04-28T02:26:00;16.27;;;9.68;;
55216;SDS011;41086;46.736;15.666;2023-04-28T02:28:26;15.15;;;8.07;;
55216;SDS011;41086;46.736;15.666;2023-04-28T02:31:01;11.35;;;8.00;;
55216;SDS011;41086;46.736;15.666;2023-04-28T02:33:29;15.65;;;7.57;;
55216;SDS011;41086;46.736;15.666;2023-04-28T02:35:59;14.63;;;7.90;;
55216;SDS011;41086;46.736;15.666;2023-04-28T02:38:26;12.43;;;8.68;;
55216;SDS011;41086;46.736;15.666;2023-04-28T02:41:11;15.93;;;8.23;;
55216;SDS011;41086;46.736;15.666;2023-04-28T02:43:37;13.20;;;8.00;;
55216;SDS011;41086;46.736;15.666;2023-04-28T02:46:04;14.18;;;8.32;;
55216;SDS011;41086;46.736;15.666;2023-04-28T02:48:31;18.38;;;8.57;;
55216;SDS011;41086;46.736;15.666;2023-04-28T02:51:01;14.38;;;8.65;;
55216;SDS011;41086;46.736;15.666;2023-04-28T02:53:27;16.23;;;9.52;;
55216;SDS011;41086;46.736;15.666;2023-04-28T02:55:54;12.90;;;9.32;;
55216;SDS011;41086;46.736;15.666;2023-04-28T02:58:20;15.52;;;9.38;;
55216;SDS011;41086;46.736;15.666;2023-04-28T03:00:47;18.23;;;9.77;;
55216;SDS011;41086;46.736;15.666;2023-04-28T03:03:15;14.45;;;9.00;;
55216;SDS011;41086;46.736;15.666;2023-04-28T03:05:42;13.48;;;8.43;;
55216;SDS011;41086;46.736;15.666;2023-04-28T03:08:08;16.27;;;8.88;;
55216;SDS011;41086;46.736;15.666;2023-04-28T03:10:36;13.27;;;8.73;;
55216;SDS011;41086;46.736;15.666;2023-04-28T03:13:03;13.95;;;8.90;;
55216;SDS011;41086;46.736;15.666;2023-04-28T03:15:30;11.88;;;8.32;;
55216;SDS011;41086;46.736;15.666;2023-04-28T03:17:57;16.45;;;9.50;;
55216;SDS011;41086;46.736;15.666;2023-04-28T03:20:24;11.98;;;9.00;;
55216;SDS011;41086;46.736;15.666;2023-04-28T03:22:50;16.38;;;8.65;;
55216;SDS011;41086;46.736;15.666;2023-04-28T03:25:17;17.58;;;10.20;;
55216;SDS011;41086;46.736;15.666;2023-04-28T03:27:47;18.92;;;8.93;;
55216;SDS011;41086;46.736;15.666;2023-04-28T03:30:14;14.65;;;9.30;;
55216;SDS011;41086;46.736;15.666;2023-04-28T03:32:40;17.92;;;9.25;;
55216;SDS011;41086;46.736;15.666;2023-04-28T03:35:07;16.70;;;10.40;;
55216;SDS011;41086;46.736;15.666;2023-04-28T03:37:35;17.60;;;9.70;;
55216;SDS011;41086;46.736;15.666;2023-04-28T03:40:02;19.55;;;9.73;;
55216;SDS011;41086;46.736;15.666;2023-04-28T03:42:42;16.30;;;10.75;;
55216;SDS011;41086;46.736;15.666;2023-04-28T03:45:12;23.23;;;11.10;;
55216;SDS011;41086;46.736;15.666;2023-04-28T03:47:39;16.42;;;10.50;;
55216;SDS011;41086;46.736;15.666;2023-04-28T03:50:05;16.73;;;10.93;;
55216;SDS011;41086;46.736;15.666;2023-04-28T03:52:33;17.15;;;10.45;;
55216;SDS011;41086;46.736;15.666;2023-04-28T03:55:00;17.50;;;10.77;;
55216;SDS011;41086;46.736;15.666;2023-04-28T03:57:28;20.45;;;9.85;;
55216;SDS011;41086;46.736;15.666;2023-04-28T03:59:55;19.75;;;9.75;;
55216;SDS011;41086;46.736;15.666;2023-04-28T04:02:22;15.88;;;8.80;;
55216;SDS011;41086;46.736;15.666;2023-04-28T04:04:49;15.38;;;9.23;;
55216;SDS011;41086;46.736;15.666;2023-04-28T04:07:16;16.27;;;9.52;;
55216;SDS011;41086;46.736;15.666;2023-04-28T04:09:43;22.33;;;12.90;;
55216;SDS011;41086;46.736;15.666;2023-04-28T04:12:10;14.35;;;9.23;;
55216;SDS011;41086;46.736;15.666;2023-04-28T04:14:36;16.95;;;10.52;;
55216;SDS011;41086;46.736;15.666;2023-04-28T04:17:03;12.48;;;9.45;;
55216;SDS011;41086;46.736;15.666;2023-04-28T04:19:30;19.45;;;9.82;;
55216;SDS011;41086;46.736;15.666;2023-04-28T04:21:57;15.98;;;9.48;;
55216;SDS011;41086;46.736;15.666;2023-04-28T04:24:24;17.08;;;9.73;;
55216;SDS011;41086;46.736;15.666;2023-04-28T04:26:50;15.35;;;9.30;;
55216;SDS011;41086;46.736;15.666;2023-04-28T04:29:29;14.32;;;9.48;;
55216;SDS011;41086;46.736;15.666;2023-04-28T04:31:58;16.98;;;9.80;;
55216;SDS011;41086;46.736;15.666;2023-04-28T04:34:26;13.50;;;9.15;;
55216;SDS011;41086;46.736;15.666;2023-04-28T04:36:53;14.30;;;9.55;;
55216;SDS011;41086;46.736;15.666;2023-04-28T04:39:20;15.63;;;10.13;;
55216;SDS011;41086;46.736;15.666;2023-04-28T04:41:46;17.45;;;8.82;;
55216;SDS011;41086;46.736;15.666;2023-04-28T04:44:30;32.25;;;20.38;;
55216;SDS011;41086;46.736;15.666;2023-04-28T04:46:58;17.55;;;12.43;;
55216;SDS011;41086;46.736;15.666;2023-04-28T04:49:25;17.67;;;10.60;;
55216;SDS011;41086;46.736;15.666;2023-04-28T04:51:51;17.27;;;10.48;;
55216;SDS011;41086;46.736;15.666;2023-04-28T04:54:18;16.20;;;10.35;;
55216;SDS011;41086;46.736;15.666;2023-04-28T04:56:45;13.18;;;9.45;;
55216;SDS011;41086;46.736;15.666;2023-04-28T04:59:18;13.30;;;9.85;;
55216;SDS011;41086;46.736;15.666;2023-04-28T05:01:54;10.20;;;7.68;;
55216;SDS011;41086;46.736;15.666;2023-04-28T05:04:22;15.32;;;8.48;;
55216;SDS011;41086;46.736;15.666;2023-04-28T05:06:50;16.30;;;10.00;;
55216;SDS011;41086;46.736;15.666;2023-04-28T05:09:17;12.65;;;8.05;;
55216;SDS011;41086;46.736;15.666;2023-04-28T05:11:45;13.88;;;8.75;;
55216;SDS011;41086;46.736;15.666;2023-04-28T05:14:12;12.55;;;7.95;;
55216;SDS011;41086;46.736;15.666;2023-04-28T05:16:40;13.88;;;8.32;;
55216;SDS011;41086;46.736;15.666;2023-04-28T05:19:14;20.38;;;8.55;;
55216;SDS011;41086;46.736;15.666;2023-04-28T05:21:41;22.25;;;8.68;;
55216;SDS011;41086;46.736;15.666;2023-04-28T05:24:08;21.67;;;9.82;;
55216;SDS011;41086;46.736;15.666;2023-04-28T05:26:35;13.93;;;9.32;;
55216;SDS011;41086;46.736;15.666;2023-04-28T05:29:06;17.65;;;11.02;;
55216;SDS011;41086;46.736;15.666;2023-04-28T05:31:33;18.08;;;10.93;;
55216;SDS011;41086;46.736;15.666;2023-04-28T05:34:00;18.65;;;9.35;;
55216;SDS011;41086;46.736;15.666;2023-04-28T05:36:27;16.77;;;8.95;;
55216;SDS011;41086;46.736;15.666;2023-04-28T05:41:21;14.82;;;8.38;;
55216;SDS011;41086;46.736;15.666;2023-04-28T05:43:48;14.43;;;9.70;;
55216;SDS011;41086;46.736;15.666;2023-04-28T05:46:17;16.05;;;10.38;;
55216;SDS011;41086;46.736;15.666;2023-04-28T05:48:57;19.02;;;10.43;;
55216;SDS011;41086;46.736;15.666;2023-04-28T05:51:26;12.23;;;8.18;;
55216;SDS011;41086;46.736;15.666;2023-04-28T05:53:52;16.65;;;9.30;;
55216;SDS011;41086;46.736;15.666;2023-04-28T05:56:19;18.20;;;9.40;;
55216;SDS011;41086;46.736;15.666;2023-04-28T05:58:47;15.75;;;8.93;;
55216;SDS011;41086;46.736;15.666;2023-04-28T06:01:16;16.88;;;9.05;;
55216;SDS011;41086;46.736;15.666;2023-04-28T06:03:42;12.82;;;9.10;;
55216;SDS011;41086;46.736;15.666;2023-04-28T06:06:11;13.23;;;9.30;;
55216;SDS011;41086;46.736;15.666;2023-04-28T06:11:05;10.48;;;7.70;;
55216;SDS011;41086;46.736;15.666;2023-04-28T06:13:32;12.40;;;9.02;;
55216;SDS011;41086;46.736;15.666;2023-04-28T06:15:58;14.70;;;9.32;;
55216;SDS011;41086;46.736;15.666;2023-04-28T06:18:25;12.70;;;8.00;;
55216;SDS011;41086;46.736;15.666;2023-04-28T06:20:52;15.20;;;9.07;;
55216;SDS011;41086;46.736;15.666;2023-04-28T06:23:19;15.98;;;8.07;;
55216;SDS011;41086;46.736;15.666;2023-04-28T06:25:48;18.55;;;8.48;;
55216;SDS011;41086;46.736;15.666;2023-04-28T06:28:15;12.25;;;7.90;;
55216;SDS011;41086;46.736;15.666;2023-04-28T06:30:42;9.23;;;6.63;;
55216;SDS011;41086;46.736;15.666;2023-04-28T06:33:08;9.27;;;6.88;;
55216;SDS011;41086;46.736;15.666;2023-04-28T06:35:35;10.32;;;7.45;;
55216;SDS011;41086;46.736;15.666;2023-04-28T06:38:05;14.10;;;6.95;;
55216;SDS011;41086;46.736;15.666;2023-04-28T06:42:59;9.57;;;7.28;;
55216;SDS011;41086;46.736;15.666;2023-04-28T06:45:34;11.50;;;6.85;;
55216;SDS011;41086;46.736;15.666;2023-04-28T06:48:00;14.02;;;6.90;;
55216;SDS011;41086;46.736;15.666;2023-04-28T06:50:27;11.23;;;6.88;;
55216;SDS011;41086;46.736;15.666;2023-04-28T06:52:54;10.85;;;6.88;;
55216;SDS011;41086;46.736;15.666;2023-04-28T06:55:20;8.63;;;6.05;;
55216;SDS011;41086;46.736;15.666;2023-04-28T06:57:48;13.43;;;7.13;;
55216;SDS011;41086;46.736;15.666;2023-04-28T07:00:15;12.20;;;7.47;;
55216;SDS011;41086;46.736;15.666;2023-04-28T07:02:42;9.48;;;7.28;;
55216;SDS011;41086;46.736;15.666;2023-04-28T07:05:09;9.98;;;7.78;;
55216;SDS011;41086;46.736;15.666;2023-04-28T07:07:35;11.05;;;7.82;;
55216;SDS011;41086;46.736;15.666;2023-04-28T07:10:04;11.60;;;6.97;;
55216;SDS011;41086;46.736;15.666;2023-04-28T07:12:31;9.30;;;6.90;;
55216;SDS011;41086;46.736;15.666;2023-04-28T07:14:58;8.38;;;6.70;;
55216;SDS011;41086;46.736;15.666;2023-04-28T07:17:24;15.30;;;7.78;;
55216;SDS011;41086;46.736;15.666;2023-04-28T07:19:51;10.43;;;6.75;;
55216;SDS011;41086;46.736;15.666;2023-04-28T07:22:18;14.05;;;8.95;;
55216;SDS011;41086;46.736;15.666;2023-04-28T07:24:44;12.18;;;6.18;;
55216;SDS011;41086;46.736;15.666;2023-04-28T07:27:11;10.65;;;7.25;;
55216;SDS011;41086;46.736;15.666;2023-04-28T07:29:38;11.40;;;6.38;;
55216;SDS011;41086;46.736;15.666;2023-04-28T07:32:04;12.93;;;6.35;;
55216;SDS011;41086;46.736;15.666;2023-04-28T07:34:34;13.02;;;6.57;;
55216;SDS011;41086;46.736;15.666;2023-04-28T07:37:01;12.68;;;6.82;;
55216;SDS011;41086;46.736;15.666;2023-04-28T07:39:29;14.90;;;6.18;;
55216;SDS011;41086;46.736;15.666;2023-04-28T07:41:56;9.13;;;5.47;;
55216;SDS011;41086;46.736;15.666;2023-04-28T07:44:24;10.38;;;5.20;;
55216;SDS011;41086;46.736;15.666;2023-04-28T07:46:53;11.00;;;5.90;;
55216;SDS011;41086;46.736;15.666;2023-04-28T07:49:20;12.85;;;5.75;;
55216;SDS011;41086;46.736;15.666;2023-04-28T07:51:46;12.48;;;5.90;;
55216;SDS011;41086;46.736;15.666;2023-04-28T07:54:13;9.57;;;5.45;;
55216;SDS011;41086;46.736;15.666;2023-04-28T07:59:07;17.38;;;6.18;;
55216;SDS011;41086;46.736;15.666;2023-04-28T08:01:33;13.85;;;6.78;;
55216;SDS011;41086;46.736;15.666;2023-04-28T08:04:00;8.25;;;5.05;;
55216;SDS011;41086;46.736;15.666;2023-04-28T08:08:54;10.48;;;5.72;;
55216;SDS011;41086;46.736;15.666;2023-04-28T08:11:21;11.15;;;6.22;;
55216;SDS011;41086;46.736;15.666;2023-04-28T08:13:48;10.48;;;7.03;;
55216;SDS011;41086;46.736;15.666;2023-04-28T08:16:14;11.00;;;7.15;;
55216;SDS011;41086;46.736;15.666;2023-04-28T08:18:41;9.48;;;6.82;;
55216;SDS011;41086;46.736;15.666;2023-04-28T08:21:08;10.15;;;6.55;;
55216;SDS011;41086;46.736;15.666;2023-04-28T08:23:35;10.50;;;7.15;;
55216;SDS011;41086;46.736;15.666;2023-04-28T08:26:01;11.27;;;7.30;;
55216;SDS011;41086;46.736;15.666;2023-04-28T08:28:28;10.20;;;6.72;;
55216;SDS011;41086;46.736;15.666;2023-04-28T08:30:55;9.75;;;7.40;;
55216;SDS011;41086;46.736;15.666;2023-04-28T08:33:21;8.70;;;6.50;;
55216;SDS011;41086;46.736;15.666;2023-04-28T08:35:49;11.10;;;7.90;;
55216;SDS011;41086;46.736;15.666;2023-04-28T08:38:16;13.63;;;7.68;;
55216;SDS011;41086;46.736;15.666;2023-04-28T08:40:43;12.18;;;8.00;;
55216;SDS011;41086;46.736;15.666;2023-04-28T08:43:11;12.98;;;6.72;;
55216;SDS011;41086;46.736;15.666;2023-04-28T08:45:41;9.70;;;7.00;;
55216;SDS011;41086;46.736;15.666;2023-04-28T08:48:16;9.43;;;7.10;;
55216;SDS011;41086;46.736;15.666;2023-04-28T08:50:50;11.82;;;7.53;;
55216;SDS011;41086;46.736;15.666;2023-04-28T08:53:20;16.17;;;7.70;;
55216;SDS011;41086;46.736;15.666;2023-04-28T08:55:48;12.23;;;7.15;;
55216;SDS011;41086;46.736;15.666;2023-04-28T08:58:15;10.27;;;6.88;;
55216;SDS011;41086;46.736;15.666;2023-04-28T09:00:42;8.02;;;7.00;;
55216;SDS011;41086;46.736;15.666;2023-04-28T09:03:08;9.18;;;7.28;;
55216;SDS011;41086;46.736;15.666;2023-04-28T09:05:35;11.45;;;7.18;;
55216;SDS011;41086;46.736;15.666;2023-04-28T09:08:02;11.90;;;8.05;;
55216;SDS011;41086;46.736;15.666;2023-04-28T09:10:29;18.17;;;8.15;;
55216;SDS011;41086;46.736;15.666;2023-04-28T09:12:55;11.25;;;7.40;;
55216;SDS011;41086;46.736;15.666;2023-04-28T09:15:24;13.10;;;7.53;;
55216;SDS011;41086;46.736;15.666;2023-04-28T09:17:51;16.38;;;8.68;;
55216;SDS011;41086;46.736;15.666;2023-04-28T09:20:18;11.27;;;7.82;;
55216;SDS011;41086;46.736;15.666;2023-04-28T09:22:45;10.70;;;7.20;;
55216;SDS011;41086;46.736;15.666;2023-04-28T09:25:12;13.80;;;7.78;;
55216;SDS011;41086;46.736;15.666;2023-04-28T09:27:38;13.38;;;8.50;;
55216;SDS011;41086;46.736;15.666;2023-04-28T09:30:05;15.88;;;8.38;;
55216;SDS011;41086;46.736;15.666;2023-04-28T09:32:32;10.75;;;8.68;;
55216;SDS011;41086;46.736;15.666;2023-04-28T09:34:59;12.35;;;7.22;;
55216;SDS011;41086;46.736;15.666;2023-04-28T09:37:27;12.80;;;7.97;;
55216;SDS011;41086;46.736;15.666;2023-04-28T09:40:01;9.32;;;7.00;;
55216;SDS011;41086;46.736;15.666;2023-04-28T09:42:33;15.07;;;7.93;;
55216;SDS011;41086;46.736;15.666;2023-04-28T09:45:00;14.93;;;8.02;;
55216;SDS011;41086;46.736;15.666;2023-04-28T09:47:28;11.23;;;7.28;;
55216;SDS011;41086;46.736;15.666;2023-04-28T09:49:58;11.85;;;7.65;;
55216;SDS011;41086;46.736;15.666;2023-04-28T09:52:25;11.45;;;7.63;;
55216;SDS011;41086;46.736;15.666;2023-04-28T09:54:53;12.75;;;8.23;;
55216;SDS011;41086;46.736;15.666;2023-04-28T09:57:20;10.70;;;7.28;;
55216;SDS011;41086;46.736;15.666;2023-04-28T09:59:51;16.15;;;7.78;;
55216;SDS011;41086;46.736;15.666;2023-04-28T10:02:18;13.20;;;7.75;;
55216;SDS011;41086;46.736;15.666;2023-04-28T10:05:05;11.55;;;7.25;;
55216;SDS011;41086;46.736;15.666;2023-04-28T10:07:41;18.02;;;7.63;;
55216;SDS011;41086;46.736;15.666;2023-04-28T10:10:08;10.23;;;6.90;;
55216;SDS011;41086;46.736;15.666;2023-04-28T10:12:35;12.75;;;6.80;;
55216;SDS011;41086;46.736;15.666;2023-04-28T10:15:05;12.15;;;7.07;;
55216;SDS011;41086;46.736;15.666;2023-04-28T10:17:32;13.43;;;7.25;;
55216;SDS011;41086;46.736;15.666;2023-04-28T10:20:00;8.73;;;6.85;;
55216;SDS011;41086;46.736;15.666;2023-04-28T10:25:19;10.38;;;7.10;;
55216;SDS011;41086;46.736;15.666;2023-04-28T10:27:50;10.02;;;6.60;;
55216;SDS011;41086;46.736;15.666;2023-04-28T10:30:18;9.27;;;7.22;;
55216;SDS011;41086;46.736;15.666;2023-04-28T10:38:06;9.90;;;6.95;;
55216;SDS011;41086;46.736;15.666;2023-04-28T10:40:34;9.30;;;7.00;;
55216;SDS011;41086;46.736;15.666;2023-04-28T10:43:01;9.80;;;7.35;;
55216;SDS011;41086;46.736;15.666;2023-04-28T10:48:14;11.00;;;7.30;;
55216;SDS011;41086;46.736;15.666;2023-04-28T10:56:16;10.77;;;6.80;;
55216;SDS011;41086;46.736;15.666;2023-04-28T10:58:44;10.02;;;6.70;;
55216;SDS011;41086;46.736;15.666;2023-04-28T11:08:52;12.05;;;6.85;;
55216;SDS011;41086;46.736;15.666;2023-04-28T11:11:21;9.95;;;7.00;;
55216;SDS011;41086;46.736;15.666;2023-04-28T11:13:49;11.85;;;7.03;;
55216;SDS011;41086;46.736;15.666;2023-04-28T11:16:17;14.05;;;8.43;;
55216;SDS011;41086;46.736;15.666;2023-04-28T11:18:55;9.75;;;6.93;;
55216;SDS011;41086;46.736;15.666;2023-04-28T11:21:23;15.10;;;7.35;;
55216;SDS011;41086;46.736;15.666;2023-04-28T11:23:50;15.65;;;6.45;;
55216;SDS011;41086;46.736;15.666;2023-04-28T11:26:17;9.90;;;7.10;;
55216;SDS011;41086;46.736;15.666;2023-04-28T11:28:54;16.10;;;6.82;;
55216;SDS011;41086;46.736;15.666;2023-04-28T11:31:22;8.55;;;6.75;;
55216;SDS011;41086;46.736;15.666;2023-04-28T11:33:53;9.48;;;6.20;;
55216;SDS011;41086;46.736;15.666;2023-04-28T11:36:22;11.20;;;7.15;;
55216;SDS011;41086;46.736;15.666;2023-04-28T11:38:50;9.35;;;7.25;;
55216;SDS011;41086;46.736;15.666;2023-04-28T11:41:17;13.55;;;7.00;;
55216;SDS011;41086;46.736;15.666;2023-04-28T11:43:43;8.73;;;6.38;;
55216;SDS011;41086;46.736;15.666;2023-04-28T11:46:19;13.57;;;7.53;;
55216;SDS011;41086;46.736;15.666;2023-04-28T11:48:47;11.18;;;7.53;;
55216;SDS011;41086;46.736;15.666;2023-04-28T11:51:30;10.82;;;7.18;;
55216;SDS011;41086;46.736;15.666;2023-04-28T11:54:00;15.02;;;7.95;;
55216;SDS011;41086;46.736;15.666;2023-04-28T11:56:28;9.38;;;6.78;;
55216;SDS011;41086;46.736;15.666;2023-04-28T12:01:29;12.30;;;5.63;;
55216;SDS011;41086;46.736;15.666;2023-04-28T12:03:56;12.07;;;7.07;;
55216;SDS011;41086;46.736;15.666;2023-04-28T12:06:23;11.38;;;7.78;;
55216;SDS011;41086;46.736;15.666;2023-04-28T12:08:50;13.55;;;8.30;;
55216;SDS011;41086;46.736;15.666;2023-04-28T12:11:18;10.07;;;6.75;;
55216;SDS011;41086;46.736;15.666;2023-04-28T12:14:06;10.27;;;7.00;;
55216;SDS011;41086;46.736;15.666;2023-04-28T12:16:36;20.02;;;7.57;;
55216;SDS011;41086;46.736;15.666;2023-04-28T12:19:04;12.23;;;8.18;;
55216;SDS011;41086;46.736;15.666;2023-04-28T12:21:35;13.93;;;6.70;;
55216;SDS011;41086;46.736;15.666;2023-04-28T12:27:17;10.63;;;6.10;;
55216;SDS011;41086;46.736;15.666;2023-04-28T12:29:43;8.38;;;5.85;;
55216;SDS011;41086;46.736;15.666;2023-04-28T12:32:12;10.00;;;5.43;;
55216;SDS011;41086;46.736;15.666;2023-04-28T12:34:39;11.00;;;6.55;;
55216;SDS011;41086;46.736;15.666;2023-04-28T12:39:34;8.93;;;6.50;;
55216;SDS011;41086;46.736;15.666;2023-04-28T12:42:05;13.23;;;8.32;;
55216;SDS011;41086;46.736;15.666;2023-04-28T12:44:32;11.18;;;7.90;;
55216;SDS011;41086;46.736;15.666;2023-04-28T12:47:01;11.80;;;7.63;;
55216;SDS011;41086;46.736;15.666;2023-04-28T12:49:28;12.07;;;7.70;;
55216;SDS011;41086;46.736;15.666;2023-04-28T12:51:54;9.93;;;6.57;;
55216;SDS011;41086;46.736;15.666;2023-04-28T12:54:21;11.05;;;7.47;;
55216;SDS011;41086;46.736;15.666;2023-04-28T12:56:47;14.55;;;7.40;;
55216;SDS011;41086;46.736;15.666;2023-04-28T13:01:41;15.50;;;7.93;;
55216;SDS011;41086;46.736;15.666;2023-04-28T13:04:08;17.27;;;8.77;;
55216;SDS011;41086;46.736;15.666;2023-04-28T13:06:35;12.40;;;7.32;;
55216;SDS011;41086;46.736;15.666;2023-04-28T13:09:01;13.43;;;7.43;;
55216;SDS011;41086;46.736;15.666;2023-04-28T13:11:29;9.30;;;6.90;;
55216;SDS011;41086;46.736;15.666;2023-04-28T13:13:56;14.02;;;7.22;;
55216;SDS011;41086;46.736;15.666;2023-04-28T13:16:23;11.50;;;7.28;;
55216;SDS011;41086;46.736;15.666;2023-04-28T13:18:57;14.40;;;6.80;;
55216;SDS011;41086;46.736;15.666;2023-04-28T13:21:24;16.20;;;8.07;;
55216;SDS011;41086;46.736;15.666;2023-04-28T13:23:52;14.50;;;7.47;;
55216;SDS011;41086;46.736;15.666;2023-04-28T13:26:19;15.82;;;8.95;;
55216;SDS011;41086;46.736;15.666;2023-04-28T13:28:46;11.27;;;6.97;;
55216;SDS011;41086;46.736;15.666;2023-04-28T13:31:13;18.27;;;7.07;;
55216;SDS011;41086;46.736;15.666;2023-04-28T13:33:39;9.98;;;6.53;;
55216;SDS011;41086;46.736;15.666;2023-04-28T13:36:06;12.57;;;7.20;;
55216;SDS011;41086;46.736;15.666;2023-04-28T13:38:33;12.95;;;7.50;;
55216;SDS011;41086;46.736;15.666;2023-04-28T13:41:00;12.23;;;7.43;;
55216;SDS011;41086;46.736;15.666;2023-04-28T13:43:27;11.45;;;7.50;;
55216;SDS011;41086;46.736;15.666;2023-04-28T13:45:53;13.38;;;7.75;;
55216;SDS011;41086;46.736;15.666;2023-04-28T13:48:20;9.52;;;6.45;;
55216;SDS011;41086;46.736;15.666;2023-04-28T13:50:47;8.88;;;7.05;;
55216;SDS011;41086;46.736;15.666;2023-04-28T13:53:13;11.23;;;7.40;;
55216;SDS011;41086;46.736;15.666;2023-04-28T13:55:40;11.32;;;6.35;;
55216;SDS011;41086;46.736;15.666;2023-04-28T13:58:07;12.10;;;6.97;;
55216;SDS011;41086;46.736;15.666;2023-04-28T14:00:33;8.70;;;6.22;;
55216;SDS011;41086;46.736;15.666;2023-04-28T14:03:00;10.95;;;6.57;;
55216;SDS011;41086;46.736;15.666;2023-04-28T14:07:56;6.35;;;4.88;;
55216;SDS011;41086;46.736;15.666;2023-04-28T14:10:25;9.63;;;5.38;;
55216;SDS011;41086;46.736;15.666;2023-04-28T14:12:52;9.75;;;4.70;;
55216;SDS011;41086;46.736;15.666;2023-04-28T14:15:18;11.15;;;6.28;;
55216;SDS011;41086;46.736;15.666;2023-04-28T14:20:12;11.40;;;5.82;;
55216;SDS011;41086;46.736;15.666;2023-04-28T14:22:39;9.52;;;5.53;;
55216;SDS011;41086;46.736;15.666;2023-04-28T14:25:06;10.00;;;5.53;;
55216;SDS011;41086;46.736;15.666;2023-04-28T14:30:01;10.98;;;5.47;;
55216;SDS011;41086;46.736;15.666;2023-04-28T14:32:27;10.45;;;5.45;;
55216;SDS011;41086;46.736;15.666;2023-04-28T14:34:54;9.23;;;4.85;;
55216;SDS011;41086;46.736;15.666;2023-04-28T14:37:21;11.50;;;5.90;;
55216;SDS011;41086;46.736;15.666;2023-04-28T14:39:47;7.90;;;5.40;;
55216;SDS011;41086;46.736;15.666;2023-04-28T14:42:14;7.18;;;5.00;;
55216;SDS011;41086;46.736;15.666;2023-04-28T14:44:40;9.68;;;5.38;;
55216;SDS011;41086;46.736;15.666;2023-04-28T14:47:07;9.55;;;5.88;;
55216;SDS011;41086;46.736;15.666;2023-04-28T14:49:34;7.68;;;5.03;;
55216;SDS011;41086;46.736;15.666;2023-04-28T14:52:00;10.52;;;5.78;;
55216;SDS011;41086;46.736;15.666;2023-04-28T14:54:27;14.10;;;5.93;;
55216;SDS011;41086;46.736;15.666;2023-04-28T14:56:53;9.45;;;4.70;;
55216;SDS011;41086;46.736;15.666;2023-04-28T14:59:20;9.27;;;5.25;;
55216;SDS011;41086;46.736;15.666;2023-04-28T15:01:47;12.15;;;5.38;;
55216;SDS011;41086;46.736;15.666;2023-04-28T15:04:15;8.35;;;5.32;;
55216;SDS011;41086;46.736;15.666;2023-04-28T15:06:42;9.07;;;5.10;;
55216;SDS011;41086;46.736;15.666;2023-04-28T15:09:09;8.63;;;6.63;;
55216;SDS011;41086;46.736;15.666;2023-04-28T15:11:36;8.00;;;5.90;;
55216;SDS011;41086;46.736;15.666;2023-04-28T15:14:02;10.65;;;6.63;;
55216;SDS011;41086;46.736;15.666;2023-04-28T15:16:29;19.80;;;6.97;;
55216;SDS011;41086;46.736;15.666;2023-04-28T15:18:55;8.38;;;5.32;;
55216;SDS011;41086;46.736;15.666;2023-04-28T15:21:22;11.20;;;6.57;;
55216;SDS011;41086;46.736;15.666;2023-04-28T15:23:49;9.18;;;6.20;;
55216;SDS011;41086;46.736;15.666;2023-04-28T15:26:20;8.55;;;4.72;;